createdAt,value
2022-10-20T00:04:55.291Z,9.95
2022-10-20T00:08:10.466Z,9.90
2022-10-20T00:11:33.465Z,9.93
2022-10-20T00:14:35.285Z,9.85
2022-10-20T00:17:50.453Z,9.88
2022-10-20T00:20:59.013Z,9.85
2022-10-20T00:24:07.461Z,9.84
2022-10-20T00:27:24.699Z,9.76
2022-10-20T00:30:39.460Z,9.60
2022-10-20T00:33:48.478Z,9.44
2022-10-20T00:36:56.473Z,9.38
2022-10-20T00:40:12.465Z,9.31
2022-10-20T00:43:28.451Z,9.16
2022-10-20T00:46:45.478Z,9.08
2022-10-20T00:50:05.473Z,8.98
2022-10-20T00:53:07.702Z,8.90
2022-10-20T00:56:22.443Z,8.78
2022-10-20T00:59:31.576Z,8.77
2022-10-20T01:02:52.488Z,8.73
2022-10-20T01:06:00.461Z,8.64
2022-10-20T01:09:22.469Z,8.66
2022-10-20T01:12:46.879Z,8.57
2022-10-20T01:16:17.462Z,8.52
2022-10-20T01:19:34.511Z,8.45
2022-10-20T01:23:11.464Z,8.36
2022-10-20T01:27:00.474Z,8.29
2022-10-20T01:30:17.101Z,8.17
2022-10-20T01:33:43.467Z,8.18
2022-10-20T01:37:05.982Z,8.16
2022-10-20T01:40:26.490Z,8.02
2022-10-20T01:43:37.779Z,7.95
2022-10-20T01:46:53.460Z,7.95
2022-10-20T01:49:56.832Z,7.97
2022-10-20T01:53:11.498Z,7.96
2022-10-20T01:56:38.061Z,7.86
2022-10-20T01:59:55.462Z,7.86
2022-10-20T02:03:37.678Z,7.78
2022-10-20T02:07:04.452Z,7.68
2022-10-20T02:10:34.481Z,7.61
2022-10-20T02:13:38.664Z,7.59
2022-10-20T02:16:57.476Z,7.48
2022-10-20T02:20:08.142Z,7.42
2022-10-20T02:23:23.478Z,7.36
2022-10-20T02:26:31.460Z,7.31
2022-10-20T02:29:45.608Z,7.29
2022-10-20T02:33:07.453Z,7.21
2022-10-20T02:36:25.491Z,7.23
2022-10-20T02:39:33.453Z,7.22
2022-10-20T02:42:42.037Z,7.19
2022-10-20T02:45:50.468Z,7.13
2022-10-20T02:49:05.465Z,7.13
2022-10-20T02:52:14.180Z,7.12
2022-10-20T02:55:22.467Z,7.04
2022-10-20T02:58:31.054Z,7.01
2022-10-20T03:01:39.496Z,7.01
2022-10-20T03:04:54.476Z,6.93
2022-10-20T03:07:56.284Z,6.93
2022-10-20T03:11:18.458Z,6.91
2022-10-20T03:14:20.291Z,6.93
2022-10-20T03:17:35.707Z,6.97
2022-10-20T03:20:46.436Z,6.89
2022-10-20T03:24:02.462Z,6.87
2022-10-20T03:27:10.445Z,6.85
2022-10-20T03:30:19.059Z,6.77
2022-10-20T03:33:31.444Z,6.73
2022-10-20T03:36:46.463Z,6.64
2022-10-20T03:39:48.236Z,6.70
2022-10-20T03:43:03.457Z,6.66
2022-10-20T03:46:14.430Z,6.64
2022-10-20T03:49:29.458Z,6.63
2022-10-20T03:52:44.442Z,6.58
2022-10-20T03:55:46.305Z,6.58
2022-10-20T03:59:01.452Z,6.57
2022-10-20T04:02:09.490Z,6.54
2022-10-20T04:05:26.495Z,6.52
2022-10-20T04:08:41.497Z,6.51
2022-10-20T04:11:56.461Z,6.49
2022-10-20T04:14:58.307Z,6.50
2022-10-20T04:18:13.436Z,6.58
2022-10-20T04:21:28.478Z,6.55
2022-10-20T04:24:43.453Z,6.60
2022-10-20T04:27:45.256Z,6.58
2022-10-20T04:31:01.457Z,6.60
2022-10-20T04:34:03.236Z,6.59
2022-10-20T04:37:18.447Z,6.55
2022-10-20T04:40:28.446Z,6.49
2022-10-20T04:43:36.985Z,6.43
2022-10-20T04:46:51.461Z,6.40
2022-10-20T04:49:59.438Z,6.34
2022-10-20T04:53:08.842Z,6.28
2022-10-20T04:56:26.454Z,6.31
2022-10-20T04:59:35.017Z,6.32
2022-10-20T05:02:49.445Z,6.35
2022-10-20T05:05:57.456Z,6.36
2022-10-20T05:09:19.445Z,6.35
2022-10-20T05:12:38.700Z,6.35
2022-10-20T05:15:59.475Z,6.39
2022-10-20T05:19:01.294Z,6.38
2022-10-20T05:22:16.441Z,6.43
2022-10-20T05:25:35.994Z,6.44
2022-10-20T05:28:46.450Z,6.47
2022-10-20T05:32:01.458Z,6.47
2022-10-20T05:35:09.987Z,6.51
2022-10-20T05:38:24.474Z,6.55
2022-10-20T05:41:34.755Z,6.56
2022-10-20T05:44:55.457Z,6.59
2022-10-20T05:48:11.456Z,6.69
2022-10-20T05:51:22.806Z,6.77
2022-10-20T05:54:37.441Z,6.81
2022-10-20T05:57:56.469Z,6.85
2022-10-20T06:01:14.433Z,6.89
2022-10-20T06:04:30.470Z,7.00
2022-10-20T06:07:32.374Z,7.20
2022-10-20T06:10:50.455Z,7.15
2022-10-20T06:13:59.469Z,7.64
2022-10-20T06:17:08.063Z,7.95
2022-10-20T06:20:29.479Z,7.60
2022-10-20T06:23:38.320Z,7.52
2022-10-20T06:26:53.446Z,7.53
2022-10-20T06:30:02.079Z,7.54
2022-10-20T06:33:16.474Z,7.64
2022-10-20T06:36:19.301Z,7.71
2022-10-20T06:39:34.485Z,7.80
2022-10-20T06:42:42.442Z,7.87
2022-10-20T06:45:55.734Z,8.00
2022-10-20T06:49:13.479Z,8.15
2022-10-20T06:52:15.515Z,8.28
2022-10-20T06:55:30.468Z,8.45
2022-10-20T06:58:47.462Z,8.64
2022-10-20T07:02:02.572Z,8.76
2022-10-20T07:05:11.080Z,8.87
2022-10-20T07:08:19.433Z,9.05
2022-10-20T07:11:42.519Z,9.21
2022-10-20T07:14:51.005Z,9.38
2022-10-20T07:18:05.483Z,9.57
2022-10-20T07:21:17.609Z,9.70
2022-10-20T07:24:26.447Z,9.95
2022-10-20T07:27:41.458Z,10.14
2022-10-20T07:30:53.462Z,10.30
2022-10-20T07:37:37.634Z,11.09
2022-10-20T07:40:40.058Z,11.29
2022-10-20T07:43:54.463Z,11.62
2022-10-20T07:47:02.449Z,11.84
2022-10-20T07:50:12.789Z,12.09
2022-10-20T07:53:21.429Z,12.43
2022-10-20T07:56:39.453Z,12.59
2022-10-20T07:59:48.440Z,12.44
2022-10-20T08:03:03.471Z,12.68
2022-10-20T08:06:18.445Z,12.64
2022-10-20T08:09:20.286Z,12.73
2022-10-20T08:12:42.441Z,12.91
2022-10-20T08:15:51.116Z,13.10
2022-10-20T08:19:08.251Z,13.25
2022-10-20T08:22:17.169Z,13.43
2022-10-20T08:25:25.457Z,13.53
2022-10-20T08:28:41.465Z,13.57
2022-10-20T08:31:51.477Z,13.59
2022-10-20T08:34:59.941Z,13.47
2022-10-20T08:38:14.469Z,13.68
2022-10-20T08:41:38.799Z,13.82
2022-10-20T08:45:06.485Z,13.75
2022-10-20T08:48:20.041Z,13.93
2022-10-20T08:51:31.455Z,14.32
2022-10-20T08:54:42.240Z,14.34
2022-10-20T08:57:50.469Z,14.43
2022-10-20T09:01:08.454Z,14.46
2022-10-20T09:04:28.445Z,14.60
2022-10-20T09:07:46.467Z,14.89
2022-10-20T09:10:56.986Z,14.84
2022-10-20T09:14:14.472Z,15.31
2022-10-20T09:17:32.447Z,15.37
2022-10-20T09:20:39.753Z,15.44
2022-10-20T09:23:58.461Z,15.26
2022-10-20T09:27:35.870Z,15.35
2022-10-20T09:30:47.696Z,15.67
2022-10-20T09:34:02.452Z,15.88
2022-10-20T09:37:13.445Z,15.89
2022-10-20T09:40:29.470Z,15.91
2022-10-20T09:43:48.311Z,16.08
2022-10-20T09:46:59.463Z,15.63
2022-10-20T09:50:24.451Z,15.76
2022-10-20T09:53:52.490Z,15.92
2022-10-20T09:57:03.470Z,15.96
2022-10-20T10:00:39.614Z,15.88
2022-10-20T10:03:51.119Z,16.36
2022-10-20T10:06:59.524Z,16.07
2022-10-20T10:10:33.467Z,15.90
2022-10-20T10:13:51.462Z,15.97
2022-10-20T10:16:59.444Z,16.12
2022-10-20T10:20:40.479Z,15.87
2022-10-20T10:24:01.458Z,16.34
2022-10-20T10:27:30.744Z,16.42
2022-10-20T10:30:46.927Z,16.26
2022-10-20T10:34:27.449Z,16.15
2022-10-20T10:37:45.514Z,16.25
2022-10-20T10:41:25.459Z,15.98
2022-10-20T10:44:45.465Z,15.65
2022-10-20T10:48:51.473Z,15.88
2022-10-20T10:52:35.465Z,15.56
2022-10-20T10:59:35.499Z,15.95
2022-10-20T11:03:02.002Z,15.98
2022-10-20T11:06:25.471Z,16.29
2022-10-20T11:10:06.469Z,16.03
2022-10-20T11:13:40.546Z,15.61
2022-10-20T11:17:30.703Z,15.52
2022-10-20T11:21:09.884Z,15.30
2022-10-20T11:24:27.477Z,15.44
2022-10-20T11:27:38.908Z,15.88
2022-10-20T11:30:54.492Z,16.03
2022-10-20T11:34:28.056Z,15.72
2022-10-20T11:37:50.640Z,15.45
2022-10-20T11:41:26.604Z,15.53
2022-10-20T11:44:46.475Z,15.72
2022-10-20T11:49:00.352Z,15.84
2022-10-20T11:52:47.474Z,15.81
2022-10-20T11:56:15.490Z,15.83
2022-10-20T11:59:33.090Z,15.92
2022-10-20T12:03:00.477Z,15.58
2022-10-20T12:06:40.458Z,15.43
2022-10-20T12:10:09.331Z,15.54
2022-10-20T12:13:47.458Z,15.40
2022-10-20T12:16:55.909Z,15.27
2022-10-20T12:20:27.476Z,15.19
2022-10-20T12:23:51.504Z,15.13
2022-10-20T12:27:15.504Z,15.07
2022-10-20T12:30:39.325Z,15.22
2022-10-20T12:34:00.473Z,15.64
2022-10-20T12:37:23.487Z,15.52
2022-10-20T12:40:49.257Z,15.53
2022-10-20T12:44:05.482Z,15.55
2022-10-20T12:47:25.348Z,15.43
2022-10-20T12:50:52.484Z,15.56
2022-10-20T12:54:07.530Z,15.72
2022-10-20T12:57:43.523Z,15.84
2022-10-20T13:00:46.552Z,15.86
2022-10-20T13:04:01.511Z,15.72
2022-10-20T13:07:09.465Z,15.59
2022-10-20T13:10:34.482Z,15.41
2022-10-20T13:14:00.083Z,15.46
2022-10-20T13:17:42.491Z,15.30
2022-10-20T13:21:10.493Z,15.16
2022-10-20T13:24:38.897Z,15.24
2022-10-20T13:27:44.744Z,15.09
2022-10-20T13:31:12.517Z,15.12
2022-10-20T13:34:28.666Z,15.08
2022-10-20T13:37:59.502Z,15.00
2022-10-20T13:41:15.185Z,14.97
2022-10-20T13:44:50.479Z,14.87
2022-10-20T13:48:17.183Z,14.76
2022-10-20T13:51:31.473Z,14.72
2022-10-20T13:54:50.491Z,14.71
2022-10-20T13:58:20.119Z,14.69
2022-10-20T14:01:37.476Z,14.65
2022-10-20T14:04:45.496Z,14.66
2022-10-20T14:08:03.240Z,14.64
2022-10-20T14:11:14.042Z,14.59
2022-10-20T14:14:36.490Z,14.59
2022-10-20T14:17:56.184Z,14.65
2022-10-20T14:21:10.497Z,14.61
2022-10-20T14:24:50.490Z,14.59
2022-10-20T14:28:02.759Z,14.55
2022-10-20T14:31:21.987Z,14.54
2022-10-20T14:34:36.517Z,14.47
2022-10-20T14:37:57.483Z,14.44
2022-10-20T14:41:08.495Z,14.48
2022-10-20T14:44:31.774Z,14.46
2022-10-20T14:47:48.521Z,14.42
2022-10-20T14:51:06.493Z,14.41
2022-10-20T14:54:27.536Z,14.34
2022-10-20T14:57:44.153Z,14.28
2022-10-20T15:00:56.474Z,14.16
2022-10-20T15:04:16.947Z,14.11
2022-10-20T15:07:41.492Z,14.01
2022-10-20T15:10:53.469Z,13.87
2022-10-20T15:14:15.702Z,13.85
2022-10-20T15:17:42.500Z,13.63
2022-10-20T15:20:53.301Z,13.53
2022-10-20T15:24:01.597Z,13.40
2022-10-20T15:27:22.627Z,13.27
2022-10-20T15:30:35.318Z,13.16
2022-10-20T15:33:43.580Z,13.02
2022-10-20T15:36:58.466Z,12.87
2022-10-20T15:40:07.500Z,12.73
2022-10-20T15:43:25.490Z,12.60
2022-10-20T15:46:34.345Z,12.43
2022-10-20T15:49:49.512Z,12.31
2022-10-20T15:52:58.341Z,12.17
2022-10-20T15:56:14.481Z,12.03
2022-10-20T15:59:23.475Z,11.95
2022-10-20T16:02:38.750Z,11.89
2022-10-20T16:05:54.493Z,11.77
2022-10-20T16:09:03.554Z,11.66
2022-10-20T16:12:19.496Z,11.60
2022-10-20T16:15:47.498Z,11.49
2022-10-20T16:19:16.435Z,11.36
2022-10-20T16:22:52.508Z,11.26
2022-10-20T16:26:28.485Z,11.24
2022-10-20T16:30:04.782Z,11.07
2022-10-20T16:33:34.485Z,11.03
2022-10-20T16:36:50.693Z,10.97
2022-10-20T16:40:00.285Z,10.89
2022-10-20T16:43:09.841Z,10.81
2022-10-20T16:46:20.129Z,10.73
2022-10-20T16:49:35.886Z,10.64
2022-10-20T16:52:53.768Z,10.57
2022-10-20T16:56:09.849Z,10.53
2022-10-20T16:59:18.637Z,10.42
2022-10-20T17:02:41.954Z,10.36
2022-10-20T17:06:01.672Z,10.28
2022-10-20T17:09:07.491Z,10.17
2022-10-20T17:12:25.891Z,10.11
2022-10-20T17:15:35.821Z,10.08
2022-10-20T17:18:52.863Z,10.00
2022-10-20T17:21:57.123Z,9.96
2022-10-20T17:25:14.525Z,9.91
2022-10-20T17:28:20.438Z,9.81
2022-10-20T17:31:37.893Z,9.85
2022-10-20T17:34:42.835Z,9.85
2022-10-20T17:38:03.687Z,9.80
2022-10-20T17:41:16.300Z,9.74
2022-10-20T17:44:32.819Z,9.73
2022-10-20T17:47:50.904Z,9.69
2022-10-20T17:51:19.515Z,9.67
2022-10-20T17:54:34.172Z,9.67
2022-10-20T17:57:50.920Z,9.63
2022-10-20T18:01:00.964Z,9.63
2022-10-20T18:04:15.217Z,9.61
2022-10-20T18:07:31.964Z,9.50
2022-10-20T18:10:43.741Z,9.48
2022-10-20T18:14:07.903Z,9.45
2022-10-20T18:17:10.896Z,9.40
2022-10-20T18:20:28.749Z,9.30
2022-10-20T18:23:41.192Z,9.23
2022-10-20T18:26:51.896Z,9.21
2022-10-20T18:30:07.927Z,9.23
2022-10-20T18:33:24.552Z,9.27
2022-10-20T18:36:45.945Z,9.29
2022-10-20T18:39:56.625Z,9.31
2022-10-20T18:43:06.989Z,9.31
2022-10-20T18:46:17.713Z,9.29
2022-10-20T18:49:28.918Z,9.27
2022-10-20T18:52:44.944Z,9.24
2022-10-20T18:56:00.959Z,9.26
2022-10-20T18:59:20.218Z,9.23
2022-10-20T19:02:30.033Z,9.23
2022-10-20T19:05:46.894Z,9.20
2022-10-20T19:08:57.237Z,9.18
2022-10-20T19:12:16.913Z,9.09
2022-10-20T19:15:32.886Z,9.10
2022-10-20T19:18:47.343Z,9.10
2022-10-20T19:21:57.941Z,9.10
2022-10-20T19:25:14.937Z,9.08
2022-10-20T19:28:24.352Z,9.07
2022-10-20T19:31:51.512Z,9.10
2022-10-20T19:35:08.931Z,9.12
2022-10-20T19:38:12.245Z,9.10
2022-10-20T19:41:29.928Z,9.10
2022-10-20T19:44:40.192Z,9.08
2022-10-20T19:47:56.859Z,9.08
2022-10-20T19:51:07.522Z,9.07
2022-10-20T19:54:25.913Z,9.09
2022-10-20T19:57:31.562Z,9.06
2022-10-20T20:00:52.852Z,9.02
2022-10-20T20:04:09.641Z,9.02
2022-10-20T20:07:18.867Z,9.00
2022-10-20T20:10:34.475Z,8.99
2022-10-20T20:13:43.902Z,8.94
2022-10-20T20:17:00.108Z,8.93
2022-10-20T20:20:15.482Z,8.92
2022-10-20T20:23:34.726Z,8.94
2022-10-20T20:26:56.735Z,8.97
2022-10-20T20:29:59.312Z,9.02
2022-10-20T20:33:17.480Z,9.08
2022-10-20T20:36:26.478Z,9.10
2022-10-20T20:39:41.747Z,9.15
2022-10-20T20:42:50.164Z,9.12
2022-10-20T20:45:58.702Z,9.24
2022-10-20T20:49:13.547Z,9.25
2022-10-20T20:52:35.474Z,9.24
2022-10-20T20:56:02.479Z,9.30
2022-10-20T20:59:11.011Z,9.31
2022-10-20T21:02:25.468Z,9.37
2022-10-20T21:05:37.131Z,9.37
2022-10-20T21:08:55.485Z,9.37
2022-10-20T21:12:03.520Z,9.39
2022-10-20T21:15:25.491Z,9.40
2022-10-20T21:18:27.277Z,9.35
2022-10-20T21:21:48.478Z,9.33
2022-10-20T21:24:56.476Z,9.33
2022-10-20T21:28:11.470Z,9.32
2022-10-20T21:31:22.166Z,9.28
2022-10-20T21:34:36.488Z,9.22
2022-10-20T21:37:38.285Z,9.20
2022-10-20T21:40:53.462Z,9.19
2022-10-20T21:44:11.495Z,9.11
2022-10-20T21:47:20.085Z,9.09
2022-10-20T21:50:28.482Z,9.03
2022-10-20T21:53:37.027Z,8.97
2022-10-20T21:56:47.493Z,8.95
2022-10-20T22:00:02.510Z,8.92
2022-10-20T22:03:05.256Z,8.86
2022-10-20T22:06:23.485Z,8.82
2022-10-20T22:09:25.476Z,8.77
2022-10-20T22:12:40.482Z,8.73
2022-10-20T22:15:48.768Z,8.71
2022-10-20T22:19:09.500Z,8.67
2022-10-20T22:22:11.246Z,8.65
2022-10-20T22:25:26.456Z,8.57
2022-10-20T22:28:28.698Z,8.53
2022-10-20T22:31:44.484Z,8.51
2022-10-20T22:34:53.005Z,8.47
2022-10-20T22:38:07.520Z,8.38
2022-10-20T22:41:16.308Z,8.26
2022-10-20T22:44:24.488Z,8.22
2022-10-20T22:47:33.206Z,8.18
2022-10-20T22:50:41.489Z,8.16
2022-10-20T22:53:56.502Z,8.13
2022-10-20T22:56:58.238Z,8.08
2022-10-20T23:00:14.492Z,8.02
2022-10-20T23:03:16.347Z,8.04
2022-10-20T23:06:32.486Z,8.02
2022-10-20T23:09:40.495Z,8.00
2022-10-20T23:12:55.511Z,7.97
2022-10-20T23:16:10.549Z,7.97
2022-10-20T23:19:19.080Z,7.94
2022-10-20T23:22:33.488Z,7.87
2022-10-20T23:25:42.902Z,7.84
2022-10-20T23:28:57.483Z,7.81
2022-10-20T23:31:59.290Z,7.80
2022-10-20T23:35:14.537Z,7.75
2022-10-20T23:38:16.312Z,7.75
2022-10-20T23:41:31.505Z,7.75
2022-10-20T23:44:33.438Z,7.72
2022-10-20T23:47:48.514Z,7.69
2022-10-20T23:50:50.307Z,7.61
2022-10-20T23:54:05.495Z,7.63
2022-10-20T23:57:13.931Z,7.57
